sensor_id;sensor_type;location;lat;lon;timestamp;P1;durP1;ratioP1;P2;durP2;ratioP2
63606;SDS011;51327;52.466;-1.938;2022-07-23T00:01:26;2.30;;;1.35;;
63606;SDS011;51327;52.466;-1.938;2022-07-23T00:03:55;1.40;;;1.30;;
63606;SDS011;51327;52.466;-1.938;2022-07-23T00:06:23;2.08;;;1.33;;
63606;SDS011;51327;52.466;-1.938;2022-07-23T00:08:51;1.95;;;1.63;;
63606;SDS011;51327;52.466;-1.938;2022-07-23T00:11:19;2.55;;;1.20;;
63606;SDS011;51327;52.466;-1.938;2022-07-23T00:13:46;1.40;;;1.17;;
63606;SDS011;51327;52.466;-1.938;2022-07-23T00:16:14;1.58;;;1.33;;
63606;SDS011;51327;52.466;-1.938;2022-07-23T00:18:42;1.55;;;1.20;;
63606;SDS011;51327;52.466;-1.938;2022-07-23T00:21:10;1.70;;;1.30;;
63606;SDS011;51327;52.466;-1.938;2022-07-23T00:23:39;1.90;;;1.38;;
63606;SDS011;51327;52.466;-1.938;2022-07-23T00:26:04;1.92;;;1.73;;
63606;SDS011;51327;52.466;-1.938;2022-07-23T00:28:32;1.30;;;1.20;;
63606;SDS011;51327;52.466;-1.938;2022-07-23T00:31:00;1.75;;;1.33;;
63606;SDS011;51327;52.466;-1.938;2022-07-23T00:33:28;1.73;;;1.60;;
63606;SDS011;51327;52.466;-1.938;2022-07-23T00:35:56;3.03;;;1.55;;
63606;SDS011;51327;52.466;-1.938;2022-07-23T00:38:25;3.22;;;1.63;;
63606;SDS011;51327;52.466;-1.938;2022-07-23T00:40:53;1.70;;;1.40;;
63606;SDS011;51327;52.466;-1.938;2022-07-23T00:43:21;1.75;;;1.30;;
63606;SDS011;51327;52.466;-1.938;2022-07-23T00:45:49;1.63;;;1.52;;
63606;SDS011;51327;52.466;-1.938;2022-07-23T00:48:16;1.90;;;1.33;;
63606;SDS011;51327;52.466;-1.938;2022-07-23T00:50:43;2.53;;;1.70;;
63606;SDS011;51327;52.466;-1.938;2022-07-23T00:53:09;1.48;;;1.27;;
63606;SDS011;51327;52.466;-1.938;2022-07-23T00:55:38;2.10;;;1.88;;
63606;SDS011;51327;52.466;-1.938;2022-07-23T00:58:04;1.55;;;1.23;;
63606;SDS011;51327;52.466;-1.938;2022-07-23T01:00:30;2.55;;;1.35;;
63606;SDS011;51327;52.466;-1.938;2022-07-23T01:02:57;1.60;;;1.38;;
63606;SDS011;51327;52.466;-1.938;2022-07-23T01:05:25;2.15;;;1.42;;
63606;SDS011;51327;52.466;-1.938;2022-07-23T01:07:53;2.58;;;1.50;;
63606;SDS011;51327;52.466;-1.938;2022-07-23T01:10:20;2.08;;;1.60;;
63606;SDS011;51327;52.466;-1.938;2022-07-23T01:13:04;1.85;;;1.38;;
63606;SDS011;51327;52.466;-1.938;2022-07-23T01:15:35;1.60;;;1.17;;
63606;SDS011;51327;52.466;-1.938;2022-07-23T01:18:04;2.60;;;1.60;;
63606;SDS011;51327;52.466;-1.938;2022-07-23T01:20:33;1.70;;;1.30;;
63606;SDS011;51327;52.466;-1.938;2022-07-23T01:23:01;1.60;;;1.33;;
63606;SDS011;51327;52.466;-1.938;2022-07-23T01:25:27;1.88;;;1.35;;
63606;SDS011;51327;52.466;-1.938;2022-07-23T01:27:53;1.92;;;1.45;;
63606;SDS011;51327;52.466;-1.938;2022-07-23T01:30:21;1.92;;;1.45;;
63606;SDS011;51327;52.466;-1.938;2022-07-23T01:32:49;1.58;;;1.20;;
63606;SDS011;51327;52.466;-1.938;2022-07-23T01:35:16;1.50;;;1.25;;
63606;SDS011;51327;52.466;-1.938;2022-07-23T01:37:44;2.08;;;1.50;;
63606;SDS011;51327;52.466;-1.938;2022-07-23T01:40:12;1.70;;;1.25;;
63606;SDS011;51327;52.466;-1.938;2022-07-23T01:42:37;1.95;;;1.30;;
63606;SDS011;51327;52.466;-1.938;2022-07-23T01:45:04;2.40;;;1.60;;
63606;SDS011;51327;52.466;-1.938;2022-07-23T01:47:32;2.03;;;1.33;;
63606;SDS011;51327;52.466;-1.938;2022-07-23T01:49:57;2.55;;;1.50;;
63606;SDS011;51327;52.466;-1.938;2022-07-23T01:52:23;2.78;;;1.90;;
63606;SDS011;51327;52.466;-1.938;2022-07-23T01:54:51;2.08;;;1.42;;
63606;SDS011;51327;52.466;-1.938;2022-07-23T01:57:18;1.90;;;1.35;;
63606;SDS011;51327;52.466;-1.938;2022-07-23T01:59:46;2.28;;;1.50;;
63606;SDS011;51327;52.466;-1.938;2022-07-23T02:02:14;2.42;;;1.45;;
63606;SDS011;51327;52.466;-1.938;2022-07-23T02:04:40;1.98;;;1.70;;
63606;SDS011;51327;52.466;-1.938;2022-07-23T02:07:06;2.08;;;1.50;;
63606;SDS011;51327;52.466;-1.938;2022-07-23T02:09:34;1.85;;;1.40;;
63606;SDS011;51327;52.466;-1.938;2022-07-23T02:12:00;2.55;;;1.60;;
63606;SDS011;51327;52.466;-1.938;2022-07-23T02:14:26;2.28;;;1.63;;
63606;SDS011;51327;52.466;-1.938;2022-07-23T02:16:54;2.30;;;1.75;;
63606;SDS011;51327;52.466;-1.938;2022-07-23T02:19:21;1.63;;;1.33;;
63606;SDS011;51327;52.466;-1.938;2022-07-23T02:21:47;2.10;;;1.38;;
63606;SDS011;51327;52.466;-1.938;2022-07-23T02:24:13;2.70;;;1.50;;
63606;SDS011;51327;52.466;-1.938;2022-07-23T02:26:40;2.17;;;1.50;;
63606;SDS011;51327;52.466;-1.938;2022-07-23T02:29:08;1.90;;;1.50;;
63606;SDS011;51327;52.466;-1.938;2022-07-23T02:31:34;1.85;;;1.33;;
63606;SDS011;51327;52.466;-1.938;2022-07-23T02:34:00;2.40;;;1.08;;
63606;SDS011;51327;52.466;-1.938;2022-07-23T02:36:28;2.08;;;1.25;;
63606;SDS011;51327;52.466;-1.938;2022-07-23T02:38:56;1.50;;;1.25;;
63606;SDS011;51327;52.466;-1.938;2022-07-23T02:41:24;1.67;;;1.17;;
63606;SDS011;51327;52.466;-1.938;2022-07-23T02:43:52;1.88;;;1.30;;
63606;SDS011;51327;52.466;-1.938;2022-07-23T02:46:21;1.98;;;1.50;;
63606;SDS011;51327;52.466;-1.938;2022-07-23T02:48:49;1.42;;;1.08;;
63606;SDS011;51327;52.466;-1.938;2022-07-23T02:51:17;2.88;;;1.35;;
63606;SDS011;51327;52.466;-1.938;2022-07-23T02:53:42;1.40;;;1.08;;
63606;SDS011;51327;52.466;-1.938;2022-07-23T02:56:08;1.73;;;1.40;;
63606;SDS011;51327;52.466;-1.938;2022-07-23T02:58:36;1.42;;;1.30;;
63606;SDS011;51327;52.466;-1.938;2022-07-23T03:01:04;1.50;;;1.00;;
63606;SDS011;51327;52.466;-1.938;2022-07-23T03:03:32;2.05;;;1.38;;
63606;SDS011;51327;52.466;-1.938;2022-07-23T03:06:00;1.90;;;1.35;;
63606;SDS011;51327;52.466;-1.938;2022-07-23T03:08:28;2.30;;;1.52;;
63606;SDS011;51327;52.466;-1.938;2022-07-23T03:10:54;2.13;;;1.42;;
63606;SDS011;51327;52.466;-1.938;2022-07-23T03:13:19;1.75;;;1.08;;
63606;SDS011;51327;52.466;-1.938;2022-07-23T03:15:47;1.17;;;1.08;;
63606;SDS011;51327;52.466;-1.938;2022-07-23T03:18:15;2.00;;;1.10;;
63606;SDS011;51327;52.466;-1.938;2022-07-23T03:20:43;1.80;;;1.20;;
63606;SDS011;51327;52.466;-1.938;2022-07-23T03:23:10;2.10;;;1.10;;
63606;SDS011;51327;52.466;-1.938;2022-07-23T03:25:38;1.40;;;1.20;;
63606;SDS011;51327;52.466;-1.938;2022-07-23T03:28:06;1.60;;;1.30;;
63606;SDS011;51327;52.466;-1.938;2022-07-23T03:30:33;1.52;;;1.30;;
63606;SDS011;51327;52.466;-1.938;2022-07-23T03:33:01;1.92;;;1.38;;
63606;SDS011;51327;52.466;-1.938;2022-07-23T03:35:28;1.92;;;1.50;;
63606;SDS011;51327;52.466;-1.938;2022-07-23T03:37:56;1.70;;;1.20;;
63606;SDS011;51327;52.466;-1.938;2022-07-23T03:40:24;1.10;;;0.90;;
63606;SDS011;51327;52.466;-1.938;2022-07-23T03:42:51;1.60;;;1.30;;
63606;SDS011;51327;52.466;-1.938;2022-07-23T03:45:17;1.88;;;1.30;;
63606;SDS011;51327;52.466;-1.938;2022-07-23T03:47:42;1.48;;;1.10;;
63606;SDS011;51327;52.466;-1.938;2022-07-23T03:50:11;1.73;;;1.27;;
63606;SDS011;51327;52.466;-1.938;2022-07-23T03:52:39;1.90;;;0.98;;
63606;SDS011;51327;52.466;-1.938;2022-07-23T03:55:05;2.50;;;1.20;;
63606;SDS011;51327;52.466;-1.938;2022-07-23T03:57:31;2.05;;;1.30;;
63606;SDS011;51327;52.466;-1.938;2022-07-23T03:59:59;1.30;;;1.08;;
63606;SDS011;51327;52.466;-1.938;2022-07-23T04:02:25;1.05;;;0.95;;
63606;SDS011;51327;52.466;-1.938;2022-07-23T04:04:51;2.08;;;1.25;;
63606;SDS011;51327;52.466;-1.938;2022-07-23T04:07:18;2.28;;;1.65;;
63606;SDS011;51327;52.466;-1.938;2022-07-23T04:09:46;1.40;;;0.98;;
63606;SDS011;51327;52.466;-1.938;2022-07-23T04:12:13;1.48;;;1.10;;
63606;SDS011;51327;52.466;-1.938;2022-07-23T04:14:42;2.05;;;0.90;;
63606;SDS011;51327;52.466;-1.938;2022-07-23T04:17:09;2.17;;;1.30;;
63606;SDS011;51327;52.466;-1.938;2022-07-23T04:19:38;1.60;;;1.10;;
63606;SDS011;51327;52.466;-1.938;2022-07-23T04:22:08;1.40;;;0.93;;
63606;SDS011;51327;52.466;-1.938;2022-07-23T04:24:35;1.40;;;1.08;;
63606;SDS011;51327;52.466;-1.938;2022-07-23T04:27:01;1.20;;;0.90;;
63606;SDS011;51327;52.466;-1.938;2022-07-23T04:29:28;1.50;;;0.90;;
63606;SDS011;51327;52.466;-1.938;2022-07-23T04:31:56;1.95;;;1.40;;
63606;SDS011;51327;52.466;-1.938;2022-07-23T04:34:24;1.60;;;1.02;;
63606;SDS011;51327;52.466;-1.938;2022-07-23T04:36:53;2.30;;;1.38;;
63606;SDS011;51327;52.466;-1.938;2022-07-23T04:39:21;1.23;;;1.00;;
63606;SDS011;51327;52.466;-1.938;2022-07-23T04:41:49;0.77;;;0.77;;
63606;SDS011;51327;52.466;-1.938;2022-07-23T04:44:14;1.75;;;1.20;;
63606;SDS011;51327;52.466;-1.938;2022-07-23T04:46:40;1.30;;;1.05;;
63606;SDS011;51327;52.466;-1.938;2022-07-23T04:49:08;1.80;;;0.93;;
63606;SDS011;51327;52.466;-1.938;2022-07-23T04:51:33;1.33;;;0.90;;
63606;SDS011;51327;52.466;-1.938;2022-07-23T04:53:59;1.10;;;0.90;;
63606;SDS011;51327;52.466;-1.938;2022-07-23T04:56:27;1.02;;;0.85;;
63606;SDS011;51327;52.466;-1.938;2022-07-23T04:58:54;1.05;;;0.90;;
63606;SDS011;51327;52.466;-1.938;2022-07-23T05:01:22;1.13;;;0.80;;
63606;SDS011;51327;52.466;-1.938;2022-07-23T05:03:49;1.33;;;0.93;;
63606;SDS011;51327;52.466;-1.938;2022-07-23T05:06:17;2.05;;;0.73;;
63606;SDS011;51327;52.466;-1.938;2022-07-23T05:08:45;1.13;;;0.82;;
63606;SDS011;51327;52.466;-1.938;2022-07-23T05:11:10;1.38;;;1.00;;
63606;SDS011;51327;52.466;-1.938;2022-07-23T05:13:36;2.60;;;1.20;;
63606;SDS011;51327;52.466;-1.938;2022-07-23T05:16:04;2.22;;;0.98;;
63606;SDS011;51327;52.466;-1.938;2022-07-23T05:18:32;2.38;;;1.13;;
63606;SDS011;51327;52.466;-1.938;2022-07-23T05:20:59;1.10;;;1.00;;
63606;SDS011;51327;52.466;-1.938;2022-07-23T05:23:27;1.33;;;1.05;;
63606;SDS011;51327;52.466;-1.938;2022-07-23T05:25:52;1.33;;;1.13;;
63606;SDS011;51327;52.466;-1.938;2022-07-23T05:28:18;1.27;;;0.88;;
63606;SDS011;51327;52.466;-1.938;2022-07-23T05:30:46;1.20;;;0.90;;
63606;SDS011;51327;52.466;-1.938;2022-07-23T05:33:14;2.22;;;1.30;;
63606;SDS011;51327;52.466;-1.938;2022-07-23T05:35:42;2.25;;;1.30;;
63606;SDS011;51327;52.466;-1.938;2022-07-23T05:38:09;1.48;;;1.00;;
63606;SDS011;51327;52.466;-1.938;2022-07-23T05:40:37;1.60;;;1.20;;
63606;SDS011;51327;52.466;-1.938;2022-07-23T05:43:05;1.90;;;1.35;;
63606;SDS011;51327;52.466;-1.938;2022-07-23T05:45:30;2.70;;;1.50;;
63606;SDS011;51327;52.466;-1.938;2022-07-23T05:47:56;1.70;;;1.20;;
63606;SDS011;51327;52.466;-1.938;2022-07-23T05:50:23;1.63;;;1.30;;
63606;SDS011;51327;52.466;-1.938;2022-07-23T05:52:51;2.28;;;1.65;;
63606;SDS011;51327;52.466;-1.938;2022-07-23T05:55:19;1.50;;;1.20;;
63606;SDS011;51327;52.466;-1.938;2022-07-23T05:57:46;1.80;;;1.40;;
63606;SDS011;51327;52.466;-1.938;2022-07-23T06:00:14;2.25;;;1.30;;
63606;SDS011;51327;52.466;-1.938;2022-07-23T06:02:41;2.13;;;1.45;;
63606;SDS011;51327;52.466;-1.938;2022-07-23T06:05:09;1.90;;;1.35;;
63606;SDS011;51327;52.466;-1.938;2022-07-23T06:07:37;2.13;;;1.35;;
63606;SDS011;51327;52.466;-1.938;2022-07-23T06:10:05;1.70;;;1.25;;
63606;SDS011;51327;52.466;-1.938;2022-07-23T06:12:33;2.10;;;1.50;;
63606;SDS011;51327;52.466;-1.938;2022-07-23T06:15:01;3.00;;;1.27;;
63606;SDS011;51327;52.466;-1.938;2022-07-23T06:17:28;2.25;;;1.40;;
63606;SDS011;51327;52.466;-1.938;2022-07-23T06:19:55;1.55;;;1.20;;
63606;SDS011;51327;52.466;-1.938;2022-07-23T06:22:23;1.45;;;1.20;;
63606;SDS011;51327;52.466;-1.938;2022-07-23T06:24:50;1.48;;;1.27;;
63606;SDS011;51327;52.466;-1.938;2022-07-23T06:27:19;1.73;;;1.20;;
63606;SDS011;51327;52.466;-1.938;2022-07-23T06:29:44;1.65;;;0.95;;
63606;SDS011;51327;52.466;-1.938;2022-07-23T06:32:12;1.02;;;0.82;;
63606;SDS011;51327;52.466;-1.938;2022-07-23T06:34:40;1.00;;;0.75;;
63606;SDS011;51327;52.466;-1.938;2022-07-23T06:37:07;0.93;;;0.80;;
63606;SDS011;51327;52.466;-1.938;2022-07-23T06:39:35;1.83;;;0.90;;
63606;SDS011;51327;52.466;-1.938;2022-07-23T06:42:03;0.60;;;0.55;;
63606;SDS011;51327;52.466;-1.938;2022-07-23T06:44:30;1.08;;;0.70;;
63606;SDS011;51327;52.466;-1.938;2022-07-23T06:46:58;0.55;;;0.50;;
63606;SDS011;51327;52.466;-1.938;2022-07-23T06:49:26;1.08;;;0.65;;
63606;SDS011;51327;52.466;-1.938;2022-07-23T06:51:51;1.15;;;0.68;;
63606;SDS011;51327;52.466;-1.938;2022-07-23T06:54:17;0.70;;;0.70;;
63606;SDS011;51327;52.466;-1.938;2022-07-23T06:56:44;0.60;;;0.50;;
63606;SDS011;51327;52.466;-1.938;2022-07-23T06:59:12;0.50;;;0.50;;
63606;SDS011;51327;52.466;-1.938;2022-07-23T07:01:38;0.75;;;0.57;;
63606;SDS011;51327;52.466;-1.938;2022-07-23T07:04:03;0.65;;;0.63;;
63606;SDS011;51327;52.466;-1.938;2022-07-23T07:06:39;0.50;;;0.50;;
63606;SDS011;51327;52.466;-1.938;2022-07-23T07:09:05;0.63;;;0.45;;
63606;SDS011;51327;52.466;-1.938;2022-07-23T07:11:31;0.65;;;0.60;;
63606;SDS011;51327;52.466;-1.938;2022-07-23T07:13:58;0.95;;;0.60;;
63606;SDS011;51327;52.466;-1.938;2022-07-23T07:16:26;0.55;;;0.50;;
63606;SDS011;51327;52.466;-1.938;2022-07-23T07:18:52;0.93;;;0.50;;
63606;SDS011;51327;52.466;-1.938;2022-07-23T07:21:17;0.85;;;0.50;;
63606;SDS011;51327;52.466;-1.938;2022-07-23T07:23:45;1.42;;;0.50;;
63606;SDS011;51327;52.466;-1.938;2022-07-23T07:26:12;1.20;;;0.60;;
63606;SDS011;51327;52.466;-1.938;2022-07-23T07:28:40;1.13;;;0.70;;
63606;SDS011;51327;52.466;-1.938;2022-07-23T07:31:08;0.47;;;0.47;;
63606;SDS011;51327;52.466;-1.938;2022-07-23T07:33:37;0.60;;;0.52;;
63606;SDS011;51327;52.466;-1.938;2022-07-23T07:36:03;0.95;;;0.70;;
63606;SDS011;51327;52.466;-1.938;2022-07-23T07:38:29;0.60;;;0.55;;
63606;SDS011;51327;52.466;-1.938;2022-07-23T07:40:56;0.82;;;0.70;;
63606;SDS011;51327;52.466;-1.938;2022-07-23T07:43:24;0.60;;;0.60;;
63606;SDS011;51327;52.466;-1.938;2022-07-23T07:45:52;0.60;;;0.60;;
63606;SDS011;51327;52.466;-1.938;2022-07-23T07:48:19;0.95;;;0.73;;
63606;SDS011;51327;52.466;-1.938;2022-07-23T07:50:47;1.13;;;0.70;;
63606;SDS011;51327;52.466;-1.938;2022-07-23T07:53:14;0.57;;;0.57;;
63606;SDS011;51327;52.466;-1.938;2022-07-23T07:55:42;0.63;;;0.55;;
63606;SDS011;51327;52.466;-1.938;2022-07-23T07:58:10;0.70;;;0.50;;
63606;SDS011;51327;52.466;-1.938;2022-07-23T08:00:37;0.90;;;0.55;;
63606;SDS011;51327;52.466;-1.938;2022-07-23T08:03:05;0.82;;;0.70;;
63606;SDS011;51327;52.466;-1.938;2022-07-23T08:05:31;1.15;;;0.68;;
63606;SDS011;51327;52.466;-1.938;2022-07-23T08:07:57;0.50;;;0.50;;
63606;SDS011;51327;52.466;-1.938;2022-07-23T08:10:26;1.55;;;0.60;;
63606;SDS011;51327;52.466;-1.938;2022-07-23T08:12:55;1.00;;;0.60;;
63606;SDS011;51327;52.466;-1.938;2022-07-23T08:15:24;1.25;;;0.70;;
63606;SDS011;51327;52.466;-1.938;2022-07-23T08:17:54;0.50;;;0.50;;
63606;SDS011;51327;52.466;-1.938;2022-07-23T08:20:21;0.60;;;0.60;;
63606;SDS011;51327;52.466;-1.938;2022-07-23T08:22:54;0.80;;;0.70;;
63606;SDS011;51327;52.466;-1.938;2022-07-23T08:25:33;0.40;;;0.40;;
63606;SDS011;51327;52.466;-1.938;2022-07-23T08:28:04;0.75;;;0.60;;
63606;SDS011;51327;52.466;-1.938;2022-07-23T08:30:34;0.80;;;0.50;;
63606;SDS011;51327;52.466;-1.938;2022-07-23T08:33:03;0.45;;;0.40;;
63606;SDS011;51327;52.466;-1.938;2022-07-23T08:35:39;0.70;;;0.50;;
63606;SDS011;51327;52.466;-1.938;2022-07-23T08:38:09;0.40;;;0.40;;
63606;SDS011;51327;52.466;-1.938;2022-07-23T08:40:36;0.55;;;0.50;;
63606;SDS011;51327;52.466;-1.938;2022-07-23T08:43:11;0.75;;;0.60;;
63606;SDS011;51327;52.466;-1.938;2022-07-23T08:45:43;0.60;;;0.50;;
63606;SDS011;51327;52.466;-1.938;2022-07-23T08:48:14;0.65;;;0.50;;
63606;SDS011;51327;52.466;-1.938;2022-07-23T08:50:44;0.80;;;0.60;;
63606;SDS011;51327;52.466;-1.938;2022-07-23T08:53:21;1.08;;;0.60;;
63606;SDS011;51327;52.466;-1.938;2022-07-23T08:55:52;0.57;;;0.50;;
63606;SDS011;51327;52.466;-1.938;2022-07-23T08:58:21;0.52;;;0.35;;
63606;SDS011;51327;52.466;-1.938;2022-07-23T09:00:49;0.93;;;0.50;;
63606;SDS011;51327;52.466;-1.938;2022-07-23T09:03:21;0.35;;;0.32;;
63606;SDS011;51327;52.466;-1.938;2022-07-23T09:05:54;0.88;;;0.50;;
63606;SDS011;51327;52.466;-1.938;2022-07-23T09:08:26;0.40;;;0.33;;
63606;SDS011;51327;52.466;-1.938;2022-07-23T09:11:03;0.77;;;0.40;;
63606;SDS011;51327;52.466;-1.938;2022-07-23T09:13:46;0.80;;;0.40;;
63606;SDS011;51327;52.466;-1.938;2022-07-23T09:16:29;0.50;;;0.50;;
63606;SDS011;51327;52.466;-1.938;2022-07-23T09:19:00;0.70;;;0.52;;
63606;SDS011;51327;52.466;-1.938;2022-07-23T09:34:23;1.23;;;0.82;;
63606;SDS011;51327;52.466;-1.938;2022-07-23T09:36:53;1.02;;;0.80;;
63606;SDS011;51327;52.466;-1.938;2022-07-23T09:39:32;1.05;;;0.50;;
63606;SDS011;51327;52.466;-1.938;2022-07-23T09:44:49;0.85;;;0.63;;
63606;SDS011;51327;52.466;-1.938;2022-07-23T09:47:20;0.82;;;0.65;;
63606;SDS011;51327;52.466;-1.938;2022-07-23T09:50:03;0.90;;;0.70;;
63606;SDS011;51327;52.466;-1.938;2022-07-23T09:52:40;0.98;;;0.70;;
63606;SDS011;51327;52.466;-1.938;2022-07-23T09:55:10;0.57;;;0.55;;
63606;SDS011;51327;52.466;-1.938;2022-07-23T09:57:38;1.33;;;0.80;;
63606;SDS011;51327;52.466;-1.938;2022-07-23T10:00:06;1.02;;;0.60;;
63606;SDS011;51327;52.466;-1.938;2022-07-23T10:02:37;0.70;;;0.70;;
63606;SDS011;51327;52.466;-1.938;2022-07-23T10:05:06;1.00;;;0.60;;
63606;SDS011;51327;52.466;-1.938;2022-07-23T10:07:36;0.90;;;0.80;;
63606;SDS011;51327;52.466;-1.938;2022-07-23T10:10:06;0.70;;;0.60;;
63606;SDS011;51327;52.466;-1.938;2022-07-23T10:12:33;0.70;;;0.70;;
63606;SDS011;51327;52.466;-1.938;2022-07-23T10:15:12;0.93;;;0.68;;
63606;SDS011;51327;52.466;-1.938;2022-07-23T10:17:40;0.68;;;0.65;;
63606;SDS011;51327;52.466;-1.938;2022-07-23T10:20:08;0.90;;;0.70;;
63606;SDS011;51327;52.466;-1.938;2022-07-23T10:22:38;1.70;;;0.73;;
63606;SDS011;51327;52.466;-1.938;2022-07-23T10:37:07;0.80;;;0.60;;
63606;SDS011;51327;52.466;-1.938;2022-07-23T10:42:39;0.70;;;0.60;;
63606;SDS011;51327;52.466;-1.938;2022-07-23T10:48:11;0.75;;;0.60;;
63606;SDS011;51327;52.466;-1.938;2022-07-23T10:50:44;1.40;;;0.73;;
63606;SDS011;51327;52.466;-1.938;2022-07-23T10:59:15;0.93;;;0.55;;
63606;SDS011;51327;52.466;-1.938;2022-07-23T11:01:42;0.80;;;0.68;;
63606;SDS011;51327;52.466;-1.938;2022-07-23T11:04:10;0.90;;;0.80;;
63606;SDS011;51327;52.466;-1.938;2022-07-23T11:17:27;0.70;;;0.40;;
63606;SDS011;51327;52.466;-1.938;2022-07-23T11:22:36;1.05;;;0.50;;
63606;SDS011;51327;52.466;-1.938;2022-07-23T11:25:11;0.60;;;0.40;;
63606;SDS011;51327;52.466;-1.938;2022-07-23T11:27:49;0.98;;;0.68;;
63606;SDS011;51327;52.466;-1.938;2022-07-23T11:35:33;0.70;;;0.60;;
63606;SDS011;51327;52.466;-1.938;2022-07-23T11:38:06;1.27;;;0.60;;
63606;SDS011;51327;52.466;-1.938;2022-07-23T11:40:40;0.50;;;0.40;;
63606;SDS011;51327;52.466;-1.938;2022-07-23T11:43:08;0.60;;;0.50;;
63606;SDS011;51327;52.466;-1.938;2022-07-23T11:45:41;0.80;;;0.60;;
63606;SDS011;51327;52.466;-1.938;2022-07-23T11:48:18;0.73;;;0.60;;
63606;SDS011;51327;52.466;-1.938;2022-07-23T11:50:50;0.43;;;0.40;;
63606;SDS011;51327;52.466;-1.938;2022-07-23T11:53:22;1.48;;;0.50;;
63606;SDS011;51327;52.466;-1.938;2022-07-23T11:56:03;0.98;;;0.60;;
63606;SDS011;51327;52.466;-1.938;2022-07-23T11:58:32;0.50;;;0.43;;
63606;SDS011;51327;52.466;-1.938;2022-07-23T12:01:00;0.77;;;0.70;;
63606;SDS011;51327;52.466;-1.938;2022-07-23T12:03:25;0.60;;;0.40;;
63606;SDS011;51327;52.466;-1.938;2022-07-23T12:05:55;0.50;;;0.50;;
63606;SDS011;51327;52.466;-1.938;2022-07-23T12:08:24;0.45;;;0.40;;
63606;SDS011;51327;52.466;-1.938;2022-07-23T12:10:52;0.50;;;0.50;;
63606;SDS011;51327;52.466;-1.938;2022-07-23T12:13:20;0.63;;;0.43;;
63606;SDS011;51327;52.466;-1.938;2022-07-23T12:15:53;0.77;;;0.70;;
63606;SDS011;51327;52.466;-1.938;2022-07-23T12:18:24;0.77;;;0.65;;
63606;SDS011;51327;52.466;-1.938;2022-07-23T12:20:54;0.50;;;0.50;;
63606;SDS011;51327;52.466;-1.938;2022-07-23T12:23:28;0.45;;;0.45;;
63606;SDS011;51327;52.466;-1.938;2022-07-23T12:25:53;0.70;;;0.60;;
63606;SDS011;51327;52.466;-1.938;2022-07-23T12:28:21;0.65;;;0.50;;
63606;SDS011;51327;52.466;-1.938;2022-07-23T12:30:54;0.95;;;0.60;;
63606;SDS011;51327;52.466;-1.938;2022-07-23T12:33:27;1.10;;;0.70;;
63606;SDS011;51327;52.466;-1.938;2022-07-23T12:35:56;0.70;;;0.60;;
63606;SDS011;51327;52.466;-1.938;2022-07-23T12:38:27;0.70;;;0.60;;
63606;SDS011;51327;52.466;-1.938;2022-07-23T12:40:57;0.60;;;0.60;;
63606;SDS011;51327;52.466;-1.938;2022-07-23T12:43:33;0.68;;;0.60;;
63606;SDS011;51327;52.466;-1.938;2022-07-23T12:46:06;1.60;;;0.75;;
63606;SDS011;51327;52.466;-1.938;2022-07-23T12:51:15;1.02;;;0.70;;
63606;SDS011;51327;52.466;-1.938;2022-07-23T12:53:48;1.02;;;0.63;;
63606;SDS011;51327;52.466;-1.938;2022-07-23T12:56:27;0.63;;;0.50;;
63606;SDS011;51327;52.466;-1.938;2022-07-23T12:58:57;0.60;;;0.50;;
63606;SDS011;51327;52.466;-1.938;2022-07-23T13:01:29;0.80;;;0.50;;
63606;SDS011;51327;52.466;-1.938;2022-07-23T13:09:15;0.60;;;0.50;;
63606;SDS011;51327;52.466;-1.938;2022-07-23T13:11:48;0.65;;;0.57;;
63606;SDS011;51327;52.466;-1.938;2022-07-23T13:14:17;1.00;;;0.52;;
63606;SDS011;51327;52.466;-1.938;2022-07-23T13:16:46;0.52;;;0.52;;
63606;SDS011;51327;52.466;-1.938;2022-07-23T13:19:15;0.82;;;0.70;;
63606;SDS011;51327;52.466;-1.938;2022-07-23T13:21:43;0.93;;;0.68;;
63606;SDS011;51327;52.466;-1.938;2022-07-23T13:24:11;0.88;;;0.60;;
63606;SDS011;51327;52.466;-1.938;2022-07-23T13:26:40;0.70;;;0.60;;
63606;SDS011;51327;52.466;-1.938;2022-07-23T13:29:07;0.70;;;0.60;;
63606;SDS011;51327;52.466;-1.938;2022-07-23T13:31:35;0.65;;;0.52;;
63606;SDS011;51327;52.466;-1.938;2022-07-23T13:34:04;0.77;;;0.63;;
63606;SDS011;51327;52.466;-1.938;2022-07-23T13:36:36;0.80;;;0.68;;
63606;SDS011;51327;52.466;-1.938;2022-07-23T13:39:04;0.90;;;0.60;;
63606;SDS011;51327;52.466;-1.938;2022-07-23T13:41:32;1.02;;;0.68;;
63606;SDS011;51327;52.466;-1.938;2022-07-23T13:43:59;1.02;;;0.77;;
63606;SDS011;51327;52.466;-1.938;2022-07-23T13:46:27;1.20;;;0.70;;
63606;SDS011;51327;52.466;-1.938;2022-07-23T13:48:55;0.70;;;0.60;;
63606;SDS011;51327;52.466;-1.938;2022-07-23T13:51:22;0.90;;;0.80;;
63606;SDS011;51327;52.466;-1.938;2022-07-23T13:53:51;0.80;;;0.68;;
63606;SDS011;51327;52.466;-1.938;2022-07-23T13:56:17;0.85;;;0.70;;
63606;SDS011;51327;52.466;-1.938;2022-07-23T13:58:43;0.82;;;0.65;;
63606;SDS011;51327;52.466;-1.938;2022-07-23T14:01:10;1.77;;;0.82;;
63606;SDS011;51327;52.466;-1.938;2022-07-23T14:03:38;0.90;;;0.50;;
63606;SDS011;51327;52.466;-1.938;2022-07-23T14:06:04;1.00;;;0.80;;
63606;SDS011;51327;52.466;-1.938;2022-07-23T14:08:31;0.73;;;0.60;;
63606;SDS011;51327;52.466;-1.938;2022-07-23T14:10:58;1.10;;;0.80;;
63606;SDS011;51327;52.466;-1.938;2022-07-23T14:13:26;1.45;;;0.80;;
63606;SDS011;51327;52.466;-1.938;2022-07-23T14:15:52;1.73;;;0.80;;
63606;SDS011;51327;52.466;-1.938;2022-07-23T14:18:18;0.93;;;0.82;;
63606;SDS011;51327;52.466;-1.938;2022-07-23T14:20:45;0.90;;;0.80;;
63606;SDS011;51327;52.466;-1.938;2022-07-23T14:23:13;0.88;;;0.70;;
63606;SDS011;51327;52.466;-1.938;2022-07-23T14:25:41;1.38;;;0.90;;
63606;SDS011;51327;52.466;-1.938;2022-07-23T14:28:08;0.70;;;0.65;;
63606;SDS011;51327;52.466;-1.938;2022-07-23T14:30:36;0.98;;;0.70;;
63606;SDS011;51327;52.466;-1.938;2022-07-23T14:33:04;0.73;;;0.70;;
63606;SDS011;51327;52.466;-1.938;2022-07-23T14:35:31;0.90;;;0.65;;
63606;SDS011;51327;52.466;-1.938;2022-07-23T14:37:59;0.95;;;0.80;;
63606;SDS011;51327;52.466;-1.938;2022-07-23T14:40:27;1.20;;;0.82;;
63606;SDS011;51327;52.466;-1.938;2022-07-23T14:42:54;0.82;;;0.70;;
63606;SDS011;51327;52.466;-1.938;2022-07-23T14:45:20;1.00;;;0.80;;
63606;SDS011;51327;52.466;-1.938;2022-07-23T14:47:46;0.98;;;0.68;;
63606;SDS011;51327;52.466;-1.938;2022-07-23T14:50:14;0.93;;;0.60;;
63606;SDS011;51327;52.466;-1.938;2022-07-23T14:52:40;0.70;;;0.65;;
63606;SDS011;51327;52.466;-1.938;2022-07-23T14:55:06;1.08;;;0.77;;
63606;SDS011;51327;52.466;-1.938;2022-07-23T14:57:33;0.80;;;0.70;;
63606;SDS011;51327;52.466;-1.938;2022-07-23T15:00:03;0.95;;;0.70;;
63606;SDS011;51327;52.466;-1.938;2022-07-23T15:02:32;1.45;;;0.88;;
63606;SDS011;51327;52.466;-1.938;2022-07-23T15:04:57;0.65;;;0.50;;
63606;SDS011;51327;52.466;-1.938;2022-07-23T15:07:26;0.70;;;0.60;;
63606;SDS011;51327;52.466;-1.938;2022-07-23T15:09:54;0.98;;;0.80;;
63606;SDS011;51327;52.466;-1.938;2022-07-23T15:12:20;0.73;;;0.52;;
63606;SDS011;51327;52.466;-1.938;2022-07-23T15:14:45;0.65;;;0.60;;
63606;SDS011;51327;52.466;-1.938;2022-07-23T15:17:13;0.75;;;0.73;;
63606;SDS011;51327;52.466;-1.938;2022-07-23T15:19:39;1.10;;;0.70;;
63606;SDS011;51327;52.466;-1.938;2022-07-23T15:22:04;0.55;;;0.55;;
63606;SDS011;51327;52.466;-1.938;2022-07-23T15:24:32;1.15;;;0.80;;
63606;SDS011;51327;52.466;-1.938;2022-07-23T15:26:59;0.88;;;0.65;;
63606;SDS011;51327;52.466;-1.938;2022-07-23T15:29:24;0.82;;;0.65;;
63606;SDS011;51327;52.466;-1.938;2022-07-23T15:31:52;0.88;;;0.80;;
63606;SDS011;51327;52.466;-1.938;2022-07-23T15:34:20;1.10;;;0.80;;
63606;SDS011;51327;52.466;-1.938;2022-07-23T15:36:47;0.75;;;0.70;;
63606;SDS011;51327;52.466;-1.938;2022-07-23T15:39:15;1.27;;;0.70;;
63606;SDS011;51327;52.466;-1.938;2022-07-23T15:41:43;0.80;;;0.70;;
63606;SDS011;51327;52.466;-1.938;2022-07-23T15:44:10;1.05;;;0.70;;
63606;SDS011;51327;52.466;-1.938;2022-07-23T15:46:36;0.75;;;0.55;;